createdAt,value
2023-05-04T00:01:54.961Z,100899.88
2023-05-04T00:06:56.206Z,100892.00
2023-05-04T00:11:57.662Z,100885.22
2023-05-04T00:16:58.947Z,100879.72
2023-05-04T00:22:00.471Z,100879.72
2023-05-04T00:27:02.321Z,100865.03
2023-05-04T00:32:03.990Z,100874.72
2023-05-04T00:37:06.290Z,100866.63
2023-05-04T00:42:07.674Z,100866.63
2023-05-04T00:47:09.308Z,100867.16
2023-05-04T00:52:10.598Z,100854.84
2023-05-04T00:57:11.783Z,100848.81
2023-05-04T01:02:13.133Z,100848.78
2023-05-04T01:07:14.343Z,100855.09
2023-05-04T01:12:15.514Z,100860.31
2023-05-04T01:17:16.794Z,100848.53
2023-05-04T01:22:17.953Z,100847.19
2023-05-04T01:27:19.134Z,100849.31
2023-05-04T01:32:20.323Z,100840.38
2023-05-04T01:37:21.562Z,100842.47
2023-05-04T01:42:22.775Z,100837.72
2023-05-04T01:47:24.011Z,100826.22
2023-05-04T01:52:26.461Z,100831.97
2023-05-04T01:57:27.686Z,100825.94
2023-05-04T02:02:29.051Z,100825.16
2023-05-04T02:07:30.385Z,100827.78
2023-05-04T02:12:31.570Z,100822.91
2023-05-04T02:17:32.889Z,100828.91
2023-05-04T02:22:34.082Z,100829.13
2023-05-04T02:27:35.260Z,100835.72
2023-05-04T02:32:36.529Z,100835.69
2023-05-04T02:37:37.865Z,100834.63
2023-05-04T02:42:39.045Z,100840.59
2023-05-04T02:47:40.298Z,100833.78
2023-05-04T02:52:41.544Z,100831.94
2023-05-04T02:57:42.772Z,100826.16
2023-05-04T03:02:44.086Z,100818.84
2023-05-04T03:07:45.540Z,100816.25
2023-05-04T03:12:46.877Z,100812.63
2023-05-04T03:17:48.291Z,100814.97
2023-05-04T03:22:49.566Z,100800.84
2023-05-04T03:27:50.817Z,100807.94
2023-05-04T03:32:52.088Z,100799.06
2023-05-04T03:37:53.345Z,100796.72
2023-05-04T03:42:54.538Z,100791.75
2023-05-04T03:47:55.865Z,100788.84
2023-05-04T03:52:57.147Z,100796.44
2023-05-04T03:57:58.354Z,100785.41
2023-05-04T04:02:59.631Z,100789.06
2023-05-04T04:08:01.014Z,100778.59
2023-05-04T04:13:02.519Z,100768.69
2023-05-04T04:18:03.768Z,100770.00
2023-05-04T04:23:05.068Z,100781.03
2023-05-04T04:28:06.266Z,100781.28
2023-05-04T04:33:07.514Z,100782.28
2023-05-04T04:38:09.132Z,100793.78
2023-05-04T04:43:11.319Z,100796.13
2023-05-04T04:48:12.858Z,100794.03
2023-05-04T04:53:14.202Z,100794.88
2023-05-04T04:58:15.402Z,100794.88
2023-05-04T05:03:17.118Z,100796.72
2023-05-04T05:08:18.351Z,100792.25
2023-05-04T05:13:19.682Z,100790.66
2023-05-04T05:18:21.574Z,100796.97
2023-05-04T05:23:22.768Z,100812.41
2023-05-04T05:28:24.037Z,100813.13
2023-05-04T05:33:25.381Z,100811.00
2023-05-04T05:38:26.830Z,100805.16
2023-05-04T05:43:28.124Z,100792.91
2023-05-04T05:48:29.350Z,100789.56
2023-05-04T05:53:30.574Z,100796.78
2023-05-04T05:58:31.752Z,100783.94
2023-05-04T06:03:33.267Z,100780.00
2023-05-04T06:08:34.767Z,100781.88
2023-05-04T06:13:35.999Z,100776.41
2023-05-04T06:18:37.185Z,100775.44
2023-05-04T06:23:38.421Z,100779.94
2023-05-04T06:28:39.622Z,100763.50
2023-05-04T06:33:40.804Z,100767.34
2023-05-04T06:38:42.099Z,100768.19
2023-05-04T06:43:43.697Z,100759.31
2023-05-04T06:48:44.970Z,100760.16
2023-05-04T06:53:46.130Z,100766.91
2023-05-04T06:58:47.528Z,100775.72
2023-05-04T07:03:48.936Z,100769.13
2023-05-04T07:08:50.622Z,100776.84
2023-05-04T07:13:51.824Z,100758.31
2023-05-04T07:18:52.999Z,100750.22
2023-05-04T07:23:55.065Z,100753.34
2023-05-04T07:28:56.301Z,100747.00
2023-05-04T07:33:57.482Z,100743.41
2023-05-04T07:38:58.717Z,100739.03
2023-05-04T07:43:59.957Z,100742.28
2023-05-04T07:49:01.246Z,100736.03
2023-05-04T07:54:02.609Z,100730.03
2023-05-04T07:59:03.805Z,100722.09
2023-05-04T08:04:05.058Z,100731.16
2023-05-04T08:09:06.653Z,100716.75
2023-05-04T08:14:08.180Z,100712.88
2023-05-04T08:19:09.996Z,100714.56
2023-05-04T08:24:11.409Z,100709.28
2023-05-04T08:29:12.650Z,100701.88
2023-05-04T08:34:13.936Z,100698.50
2023-05-04T08:39:15.419Z,100695.94
2023-05-04T08:44:16.648Z,100697.03
2023-05-04T08:49:17.932Z,100697.28
2023-05-04T08:54:19.192Z,100694.50
2023-05-04T08:59:20.494Z,100684.03
2023-05-04T09:04:22.348Z,100692.41
2023-05-04T09:09:23.615Z,100686.84
2023-05-04T09:14:24.910Z,100687.28
2023-05-04T09:19:33.176Z,100681.13
2023-05-04T09:24:34.423Z,100684.16
2023-05-04T09:29:39.453Z,100682.28
2023-05-04T09:34:40.646Z,100677.13
2023-05-04T09:39:42.086Z,100667.72
2023-05-04T09:44:43.277Z,100659.78
2023-05-04T09:49:44.520Z,100638.72
2023-05-04T09:54:45.723Z,100630.44
2023-05-04T09:59:47.301Z,100638.34
2023-05-04T10:04:48.525Z,100626.75
2023-05-04T10:09:49.825Z,100620.84
2023-05-04T10:14:51.125Z,100601.56
2023-05-04T10:19:52.350Z,100595.56
2023-05-04T10:24:53.510Z,100599.22
2023-05-04T10:29:55.041Z,100592.31
2023-05-04T10:34:57.387Z,100571.38
2023-05-04T10:39:58.578Z,100578.03
2023-05-04T10:45:00.142Z,100558.00
2023-05-04T10:50:01.554Z,100553.00
2023-05-04T10:55:04.028Z,100554.44
2023-05-04T11:00:05.398Z,100543.50
2023-05-04T11:05:09.989Z,100543.06
2023-05-04T11:10:11.179Z,100535.34
2023-05-04T11:15:12.471Z,100523.94
2023-05-04T11:20:13.776Z,100508.22
2023-05-04T11:25:15.052Z,100501.59
2023-05-04T11:30:16.306Z,100502.91
2023-05-04T11:35:18.600Z,100488.16
2023-05-04T11:40:19.998Z,100479.91
2023-05-04T11:45:21.237Z,100461.59
2023-05-04T11:50:22.529Z,100459.88
2023-05-04T11:55:23.753Z,100450.63
2023-05-04T12:00:24.944Z,100451.31
2023-05-04T12:05:26.213Z,100447.22
2023-05-04T12:10:27.823Z,100429.97
2023-05-04T12:15:29.742Z,100427.59
2023-05-04T12:20:30.980Z,100430.31
2023-05-04T12:25:32.248Z,100435.81
2023-05-04T12:30:33.593Z,100435.06
2023-05-04T12:35:34.789Z,100428.28
2023-05-04T12:40:36.469Z,100411.81
2023-05-04T12:45:37.717Z,100405.88
2023-05-04T12:50:39.001Z,100396.34
2023-05-04T12:55:40.249Z,100392.09
2023-05-04T13:00:41.812Z,100385.50
2023-05-04T13:05:43.791Z,100380.75
2023-05-04T13:10:46.314Z,100380.91
2023-05-04T13:15:48.659Z,100354.75
2023-05-04T13:20:51.948Z,100373.09
2023-05-04T13:25:53.230Z,100357.94
2023-05-04T13:30:54.478Z,100344.75
2023-05-04T13:35:57.842Z,100336.97
2023-05-04T13:40:59.479Z,100329.28
2023-05-04T13:46:00.985Z,100321.56
2023-05-04T13:51:02.234Z,100307.31
2023-05-04T13:56:03.486Z,100319.00
2023-05-04T14:01:04.769Z,100303.34
2023-05-04T14:06:06.145Z,100301.91
2023-05-04T14:11:07.308Z,100295.09
2023-05-04T14:16:08.595Z,100280.84
2023-05-04T14:21:09.963Z,100279.63
2023-05-04T14:26:11.476Z,100277.28
2023-05-04T14:31:12.726Z,100262.72
2023-05-04T14:36:14.012Z,100260.47
2023-05-04T14:41:15.370Z,100245.16
2023-05-04T14:46:16.619Z,100222.13
2023-05-04T14:51:17.839Z,100221.78
2023-05-04T14:56:19.051Z,100215.22
2023-05-04T15:01:20.264Z,100216.78
2023-05-04T15:06:21.540Z,100208.34
2023-05-04T15:11:22.839Z,100198.34
2023-05-04T15:16:29.808Z,100188.78
2023-05-04T15:21:31.610Z,100185.31
2023-05-04T15:26:34.439Z,100185.00
2023-05-04T15:31:35.726Z,100179.22
2023-05-04T15:36:36.937Z,100168.09
2023-05-04T15:41:38.139Z,100175.00
2023-05-04T15:46:39.445Z,100170.03
2023-05-04T15:51:41.638Z,100152.38
2023-05-04T15:56:43.123Z,100162.00
2023-05-04T16:01:44.329Z,100159.25
2023-05-04T16:06:46.062Z,100157.72
2023-05-04T16:11:47.278Z,100149.28
2023-05-04T16:16:48.678Z,100155.38
2023-05-04T16:21:50.517Z,100152.28
2023-05-04T16:26:53.653Z,100149.91
2023-05-04T16:31:54.990Z,100159.88
2023-05-04T16:36:56.189Z,100141.88
2023-05-04T16:41:57.390Z,100131.47
2023-05-04T16:46:58.601Z,100133.34
2023-05-04T16:51:59.904Z,100128.00
2023-05-04T16:57:02.007Z,100131.34
2023-05-04T17:02:03.400Z,100126.56
2023-05-04T17:07:04.696Z,100142.78
2023-05-04T17:12:06.037Z,100136.72
2023-05-04T17:17:08.061Z,100144.13
2023-05-04T17:22:09.327Z,100152.44
2023-05-04T17:27:11.431Z,100145.06
2023-05-04T17:32:12.884Z,100145.44
2023-05-04T17:37:14.059Z,100150.75
2023-05-04T17:42:18.009Z,100148.41
2023-05-04T17:47:19.220Z,100153.13
2023-05-04T17:52:20.444Z,100156.28
2023-05-04T17:57:21.717Z,100166.38
2023-05-04T18:02:22.980Z,100165.22
2023-05-04T18:07:24.244Z,100158.31
2023-05-04T18:12:25.631Z,100163.25
2023-05-04T18:17:28.587Z,100154.53
2023-05-04T18:22:29.843Z,100150.75
2023-05-04T18:27:31.590Z,100157.09
2023-05-04T18:32:32.850Z,100164.81
2023-05-04T18:37:34.167Z,100160.72
2023-05-04T18:42:35.460Z,100168.03
2023-05-04T18:47:36.799Z,100165.59
2023-05-04T18:52:38.068Z,100175.91
2023-05-04T18:57:39.319Z,100174.09
2023-05-04T19:02:40.589Z,100177.72
2023-05-04T19:07:41.905Z,100180.44
2023-05-04T19:12:43.199Z,100178.19
2023-05-04T19:17:44.496Z,100180.06
2023-05-04T19:22:45.771Z,100184.56
2023-05-04T19:27:48.557Z,100182.06
2023-05-04T19:32:50.769Z,100188.81
2023-05-04T19:37:52.019Z,100185.78
2023-05-04T19:42:53.231Z,100192.94
2023-05-04T19:47:54.459Z,100199.44
2023-05-04T19:52:55.809Z,100197.59
2023-05-04T19:57:57.110Z,100202.16
2023-05-04T20:02:58.398Z,100199.66
2023-05-04T20:08:00.342Z,100160.44
2023-05-04T20:13:03.230Z,100193.28
2023-05-04T20:18:04.489Z,100198.91
2023-05-04T20:23:05.732Z,100193.59
2023-05-04T20:28:06.982Z,100201.81
2023-05-04T20:33:08.324Z,100192.50
2023-05-04T20:38:09.530Z,100189.19
2023-05-04T20:43:11.357Z,100195.72
2023-05-04T20:48:12.688Z,100190.09
2023-05-04T20:53:13.972Z,100183.59
2023-05-04T20:58:15.195Z,100180.03
2023-05-04T21:03:16.514Z,100179.81
2023-05-04T21:08:17.780Z,100164.56
2023-05-04T21:13:19.189Z,100163.81
2023-05-04T21:18:20.441Z,100165.13
2023-05-04T21:23:21.764Z,100149.44
2023-05-04T21:28:22.980Z,100159.72
2023-05-04T21:33:24.301Z,100158.06
2023-05-04T21:38:25.469Z,100156.28
2023-05-04T21:43:26.689Z,100154.72
2023-05-04T21:48:27.846Z,100152.53
2023-05-04T21:53:33.212Z,100147.00
2023-05-04T21:58:34.438Z,100152.63
2023-05-04T22:03:35.697Z,100141.47
2023-05-04T22:08:37.206Z,100147.69
2023-05-04T22:13:38.448Z,100145.03
2023-05-04T22:18:39.683Z,100144.66
2023-05-04T22:23:41.040Z,100148.13
2023-05-04T22:28:42.235Z,100148.66
2023-05-04T22:33:43.533Z,100146.56
2023-05-04T22:38:44.790Z,100141.16
2023-05-04T22:43:45.971Z,100146.34
2023-05-04T22:48:47.313Z,100145.78
2023-05-04T22:53:48.497Z,100146.56
2023-05-04T22:58:49.732Z,100146.56
2023-05-04T23:03:51.278Z,100154.97
2023-05-04T23:08:52.608Z,100150.53
2023-05-04T23:13:53.808Z,100149.09
2023-05-04T23:18:55.028Z,100152.09
2023-05-04T23:23:56.226Z,100161.56
2023-05-04T23:28:57.460Z,100167.78
2023-05-04T23:33:58.704Z,100167.75
2023-05-04T23:38:59.935Z,100167.94
2023-05-04T23:44:01.854Z,100181.38
2023-05-04T23:49:03.682Z,100183.69
2023-05-04T23:54:04.946Z,100170.84
2023-05-04T23:59:06.158Z,100164.09
